Terminal Aerodrome Forecast
Issued by NWS Boston, MA

Home | Current Version | Previous Version | Text Only | Print | Product List | Glossary On
Versions: 1 2 3 4 5 6 7 8 9 10 11 12 13 14 15 16 17 18 19 20 21 22 23 24 25 26 27
000
FTUS41 KBOX 201734
TAFPVD
TAF
KPVD 201734Z 2018/2118 24014G24KT P6SM SCT080
     FM210000 22008KT P6SM SCT250 WS020/25040KT
     FM210400 22007KT 4SM BR SCT001 WS020/25040KT
     FM210800 22007KT 1/4SM FG OVC001 WS020/25040KT
     FM211400 22007KT 2SM BR BKN015
     FM211600 22008KT P6SM BKN250=

USA.gov is the U.S. government's official web portal to all federal, state and local government web resources and services.